Terminal Aerodrome Forecast
Issued by NWS

Home | Current Version | Previous Version | Text Only | Print | Product List | Glossary On
Versions: 1 2 3 4 5 6 7 8 9 10 11 12
000
FTUS45 KRIW 291100
TAFLND
TAF
KLND 291121Z 2912/3012 VRB04KT P6SM FEW110
     FM292100 VRB10G15KT P6SM VCTS SCT080CB BKN120
     FM300300 25008KT P6SM SCT120
     FM301000 VRB05KT P6SM SCT100 BKN150=

USA.gov is the U.S. government's official web portal to all federal, state and local government web resources and services.